Coco Solo Sailor — FAC4842 — position and weather

sailwx.info

Track history (hours):
 
Tides and Currents Weather Stations Pressure Air Temp Water Temp Dewpoint Dewpoint Depression Visibility Wind Speed Wind Dir Waves Ship Positions

Coco Solo Sailor

Last reported at 2018-Jul-30 18:05 UTC. Time now 2018-Aug-14 07:00 UTC.
Position N 41°11' W 008°42'.
Warning: this ship's position is 14 days out of date.

Length 6 m.

Type: Sailing vessel. MMSI: 227291190.

Date/timePositionNaut miles runAvg speedWind from/ knotsBaromVisibWave heightAir tempDewpointWater temp
2018-Jul-30 18:05N 41°11' W 008°42'0 0.0
2018-Jul-30 17:59N 41°11' W 008°42'0 0.0
2018-Jul-30 17:29N 41°11' W 008°42'0 0.0
2018-Jul-30 16:59N 41°11' W 008°42'0 0.0
2018-Jul-30 16:29N 41°11' W 008°42'0 0.0
2018-Jul-30 15:59N 41°11' W 008°42'0 0.0
2018-Jul-30 15:30N 41°11' W 008°42'0 0.6
2018-Jul-30 15:00N 41°11' W 008°43'1 2.4
2018-Jul-30 14:29N 41°10' W 008°44'  
2018-Jul-22 14:15N 46°20' W 001°45'2 5.4
2018-Jul-22 13:54N 46°22' W 001°45'2 4.9
2018-Jul-22 13:30N 46°23' W 001°44'2 4.8
2018-Jul-22 13:00N 46°26' W 001°45'2 4.3
2018-Jul-22 12:30N 46°28' W 001°46'1 2.1
2018-Jul-22 12:00N 46°28' W 001°47'1 1.6
2018-Jul-22 11:27N 46°27' W 001°47'1 2.8
2018-Jul-22 11:00N 46°28' W 001°46'1 1.3
2018-Jul-22 10:30N 46°27' W 001°45'1 1.8
2018-Jul-22 10:00N 46°28' W 001°46'2 0.1
2018-Jul-20 18:53N 46°30' W 001°47'0 0.0
2018-Jul-20 18:30N 46°30' W 001°47'  
Track history (hours):
 
Tides and Currents Weather Stations Pressure Air Temp Water Temp Dewpoint Dewpoint Depression Visibility Wind Speed Wind Dir Waves Ship Positions

Coco Solo Sailor

Last reported at 2018-Jul-30 18:05 UTC. Time now 2018-Aug-14 07:00 UTC.
Position N 41°11' W 008°42'.
Warning: this ship's position is 14 days out of date.

Length 6 m.

Type: Sailing vessel. MMSI: 227291190.

Date/timePositionNaut miles runAvg speedWind from/ knotsBaromVisibWave heightAir tempDewpointWater temp
2018-Jul-30 18:05N 41°11' W 008°42'0 0.0
2018-Jul-30 17:59N 41°11' W 008°42'0 0.0
2018-Jul-30 17:29N 41°11' W 008°42'0 0.0
2018-Jul-30 16:59N 41°11' W 008°42'0 0.0
2018-Jul-30 16:29N 41°11' W 008°42'0 0.0
2018-Jul-30 15:59N 41°11' W 008°42'0 0.0
2018-Jul-30 15:30N 41°11' W 008°42'0 0.6
2018-Jul-30 15:00N 41°11' W 008°43'1 2.4
2018-Jul-30 14:29N 41°10' W 008°44'  
2018-Jul-22 14:15N 46°20' W 001°45'2 5.4
2018-Jul-22 13:54N 46°22' W 001°45'2 4.9
2018-Jul-22 13:30N 46°23' W 001°44'2 4.8
2018-Jul-22 13:00N 46°26' W 001°45'2 4.3
2018-Jul-22 12:30N 46°28' W 001°46'1 2.1
2018-Jul-22 12:00N 46°28' W 001°47'1 1.6
2018-Jul-22 11:27N 46°27' W 001°47'1 2.8
2018-Jul-22 11:00N 46°28' W 001°46'1 1.3
2018-Jul-22 10:30N 46°27' W 001°45'1 1.8
2018-Jul-22 10:00N 46°28' W 001°46'2 0.1
2018-Jul-20 18:53N 46°30' W 001°47'0 0.0
2018-Jul-20 18:30N 46°30' W 001°47'  

Dump ship's entire track history